Terminal Aerodrome Forecast
Issued by NWS

Home | Current Version | Previous Version | Text Only | Print | Product List | Glossary On
Versions: 1 2 3 4 5 6 7 8 9 10 11 12 13 14 15 16 17 18 19 20 21 22
000
FTUS42 KGSP 240540
TAFGMU
TAF
KGMU 240540Z 2406/2506 06011G17KT 2SM -SHRA BR OVC005
     FM240900 05009KT 1SM -SHRA BR OVC004
     FM241500 04007KT 2SM BR VCSH OVC003
     FM241700 04006KT 3SM -SHRA BR OVC007
     FM241900 01007KT 4SM BR VCSH OVC008
     FM242300 33006KT 6SM BR OVC015=

USA.gov is the U.S. government's official web portal to all federal, state and local government web resources and services.